Time;durP1;ratioP1;P1;durP2;ratioP2;P2;SDS_P1;SDS_P2;PMS_P1;PMS_P2;Temp;Humidity;BMP_temperature;BMP_pressure;BME280_temperature;BME280_humidity;BME280_pressure;Samples;Min_cycle;Max_cycle;Signal;HPM_P1;HPM_P2
2022/03/14 00:02:31;;;;;;;18.73;7.03;;;;;;;;;;6165582;23;20157;-89
2022/03/14 00:05:36;;;;;;;18.47;7.10;;;;;;;;;;6176131;23;20211;-89
2022/03/14 00:08:41;;;;;;;17.97;6.93;;;;;;;;;;6177936;23;20168;-88
2022/03/14 00:11:46;;;;;;;18.47;7.20;;;;;;;;;;6177935;23;20316;-89
2022/03/14 00:14:53;;;;;;;19.57;7.03;;;;;;;;;;6177568;23;20168;-89
2022/03/14 00:18:00;;;;;;;17.60;6.77;;;;;;;;;;6176943;23;20184;-88
2022/03/14 00:21:10;;;;;;;18.10;6.90;;;;;;;;;;6176321;23;20175;-87
2022/03/14 00:24:15;;;;;;;19.37;6.37;;;;;;;;;;6177314;23;20251;-88
2022/03/14 00:27:20;;;;;;;18.33;6.90;;;;;;;;;;6177268;23;20172;-88
2022/03/14 00:30:25;;;;;;;20.70;7.43;;;;;;;;;;6178638;23;20168;-88
2022/03/14 00:33:32;;;;;;;19.67;6.87;;;;;;;;;;6175489;23;20176;-88
2022/03/14 00:36:37;;;;;;;18.13;6.43;;;;;;;;;;6175307;23;20176;-88
2022/03/14 00:39:43;;;;;;;14.17;6.10;;;;;;;;;;6176652;23;20215;-87
2022/03/14 00:42:49;;;;;;;17.27;6.53;;;;;;;;;;6178245;23;20172;-88
2022/03/14 00:45:54;;;;;;;16.40;7.43;;;;;;;;;;6177303;23;20623;-88
2022/03/14 00:49:00;;;;;;;20.63;7.27;;;;;;;;;;6177815;23;20607;-88
2022/03/14 00:52:06;;;;;;;19.50;7.37;;;;;;;;;;6176497;23;20168;-88
2022/03/14 00:55:11;;;;;;;16.97;7.40;;;;;;;;;;6177452;23;20209;-88
2022/03/14 00:58:16;;;;;;;18.53;7.00;;;;;;;;;;6178016;23;20175;-88
2022/03/14 01:01:21;;;;;;;28.63;7.00;;;;;;;;;;6180285;23;20687;-89
2022/03/14 01:04:27;;;;;;;16.03;7.07;;;;;;;;;;6196263;23;20271;-87
2022/03/14 01:07:34;;;;;;;16.23;6.97;;;;;;;;;;6177441;23;20228;-88
2022/03/14 01:10:40;;;;;;;16.83;7.57;;;;;;;;;;6176992;23;20163;-88
2022/03/14 01:13:45;;;;;;;19.13;6.47;;;;;;;;;;6176587;23;20156;-87
2022/03/14 01:16:50;;;;;;;17.93;6.87;;;;;;;;;;6177768;23;20179;-88
2022/03/14 01:19:56;;;;;;;17.83;6.50;;;;;;;;;;6177805;23;20223;-88
2022/03/14 01:23:01;;;;;;;17.50;6.73;;;;;;;;;;6177321;23;20171;-89
2022/03/14 01:26:08;;;;;;;16.70;6.60;;;;;;;;;;6176778;23;20191;-90
2022/03/14 01:29:17;;;;;;;16.00;6.33;;;;;;;;;;6176890;23;20184;-89
2022/03/14 01:32:23;;;;;;;18.73;7.47;;;;;;;;;;6176531;23;20299;-89
2022/03/14 01:35:31;;;;;;;18.90;7.53;;;;;;;;;;6176442;23;20167;-87
2022/03/14 01:38:35;;;;;;;15.77;7.60;;;;;;;;;;6176315;23;20168;-89
2022/03/14 01:41:40;;;;;;;23.03;7.73;;;;;;;;;;6174984;23;20167;-89
2022/03/14 01:44:47;;;;;;;19.43;7.33;;;;;;;;;;6177164;23;20239;-89
2022/03/14 01:47:52;;;;;;;22.90;9.47;;;;;;;;;;6176475;23;20356;-87
2022/03/14 01:50:59;;;;;;;24.83;9.40;;;;;;;;;;6175816;23;20172;-89
2022/03/14 01:54:05;;;;;;;18.20;7.00;;;;;;;;;;6178278;23;20175;-89
2022/03/14 01:57:10;;;;;;;19.80;7.37;;;;;;;;;;6177305;23;20172;-88
2022/03/14 02:00:18;;;;;;;20.47;7.07;;;;;;;;;;6177005;23;20204;-88
2022/03/14 02:03:23;;;;;;;16.50;6.90;;;;;;;;;;6197349;23;20167;-87
2022/03/14 02:06:35;;;;;;;19.23;8.17;;;;;;;;;;6165034;23;20211;-88
2022/03/14 02:09:42;;;;;;;23.90;8.37;;;;;;;;;;6164840;23;20615;-88
2022/03/14 02:12:47;;;;;;;18.73;7.40;;;;;;;;;;6163850;23;20171;-89
2022/03/14 02:15:52;;;;;;;18.43;7.83;;;;;;;;;;6162928;23;20176;-88
2022/03/14 02:18:57;;;;;;;17.83;7.23;;;;;;;;;;6163494;23;20176;-88
2022/03/14 02:22:04;;;;;;;19.67;6.93;;;;;;;;;;6162646;23;20184;-88
2022/03/14 02:25:12;;;;;;;21.83;7.83;;;;;;;;;;6161772;23;20239;-88
2022/03/14 02:28:22;;;;;;;19.40;7.70;;;;;;;;;;6164494;23;20165;-89
2022/03/14 02:31:28;;;;;;;21.03;7.97;;;;;;;;;;6166322;23;20172;-89
2022/03/14 02:34:33;;;;;;;15.73;7.10;;;;;;;;;;6164259;23;20251;-87
2022/03/14 02:37:39;;;;;;;18.83;7.47;;;;;;;;;;6163821;23;20172;-88
2022/03/14 02:40:46;;;;;;;21.83;7.87;;;;;;;;;;6164236;23;20248;-89
2022/03/14 02:43:51;;;;;;;18.90;8.03;;;;;;;;;;6162511;23;20172;-88
2022/03/14 02:46:56;;;;;;;18.50;7.97;;;;;;;;;;6164241;23;20168;-88
2022/03/14 02:50:02;;;;;;;22.57;8.83;;;;;;;;;;6166079;23;20176;-88
2022/03/14 02:53:11;;;;;;;23.83;7.90;;;;;;;;;;6165565;23;20175;-87
2022/03/14 02:56:17;;;;;;;18.63;7.03;;;;;;;;;;6163489;23;20169;-89
2022/03/14 02:59:22;;;;;;;17.07;7.43;;;;;;;;;;6163943;23;20550;-89
2022/03/14 03:02:28;;;;;;;22.07;8.00;;;;;;;;;;6163459;23;20168;-88
2022/03/14 03:05:35;;;;;;;16.30;7.40;;;;;;;;;;6174207;23;20195;-88
2022/03/14 03:08:46;;;;;;;19.63;7.30;;;;;;;;;;6178177;23;20195;-88
2022/03/14 03:11:53;;;;;;;19.30;7.37;;;;;;;;;;6179642;23;20295;-88
2022/03/14 03:14:58;;;;;;;22.07;7.60;;;;;;;;;;6177782;23;20620;-88
2022/03/14 03:18:06;;;;;;;16.70;7.73;;;;;;;;;;6178289;23;20159;-89
2022/03/14 03:21:11;;;;;;;17.70;7.37;;;;;;;;;;6179005;23;20164;-89
2022/03/14 03:24:18;;;;;;;21.33;7.80;;;;;;;;;;6179712;23;20618;-88
2022/03/14 03:27:23;;;;;;;19.90;7.93;;;;;;;;;;6178252;23;20168;-89
2022/03/14 03:30:28;;;;;;;17.33;7.57;;;;;;;;;;6178400;23;20171;-88
2022/03/14 03:33:33;;;;;;;16.77;7.60;;;;;;;;;;6177154;23;20225;-89
2022/03/14 03:36:39;;;;;;;19.37;7.93;;;;;;;;;;6177833;23;20229;-89
2022/03/14 03:39:45;;;;;;;20.13;8.37;;;;;;;;;;6177890;23;20191;-89
2022/03/14 03:42:50;;;;;;;20.40;8.20;;;;;;;;;;6178148;23;20172;-89
2022/03/14 03:45:55;;;;;;;23.57;8.03;;;;;;;;;;6177815;23;20303;-89
2022/03/14 03:49:00;;;;;;;21.93;9.00;;;;;;;;;;6195624;23;20212;-89
2022/03/14 03:52:06;;;;;;;19.10;8.13;;;;;;;;;;6178823;23;20172;-88
2022/03/14 03:55:12;;;;;;;19.33;8.23;;;;;;;;;;6177268;23;20176;-88
2022/03/14 03:58:17;;;;;;;23.97;8.37;;;;;;;;;;6178795;23;20176;-89
2022/03/14 04:01:23;;;;;;;19.93;7.40;;;;;;;;;;6177268;23;20248;-89
2022/03/14 04:04:28;;;;;;;14.17;6.93;;;;;;;;;;6178978;23;20159;-88
2022/03/14 04:07:34;;;;;;;17.93;7.40;;;;;;;;;;6164272;23;20168;-88
2022/03/14 04:10:43;;;;;;;22.67;7.30;;;;;;;;;;6166167;23;20173;-89
2022/03/14 04:13:48;;;;;;;19.60;7.77;;;;;;;;;;6164368;23;20336;-90
2022/03/14 04:16:54;;;;;;;26.40;8.00;;;;;;;;;;6165407;23;20168;-87
2022/03/14 04:20:00;;;;;;;22.20;6.90;;;;;;;;;;6164847;23;20173;-88
2022/03/14 04:23:07;;;;;;;27.13;7.93;;;;;;;;;;6163065;23;20169;-87
2022/03/14 04:26:14;;;;;;;18.83;7.73;;;;;;;;;;6165009;23;20291;-89
2022/03/14 04:29:19;;;;;;;20.13;7.20;;;;;;;;;;6165536;23;20244;-89
2022/03/14 04:32:24;;;;;;;21.27;8.13;;;;;;;;;;6165212;23;20172;-88
2022/03/14 04:35:29;;;;;;;18.47;7.47;;;;;;;;;;6163730;23;20168;-88
2022/03/14 04:38:35;;;;;;;19.13;7.97;;;;;;;;;;6163167;23;20196;-89
2022/03/14 04:41:42;;;;;;;16.50;7.13;;;;;;;;;;6164650;23;20153;-89
2022/03/14 04:44:49;;;;;;;20.27;8.33;;;;;;;;;;6165587;23;20223;-88
2022/03/14 04:47:54;;;;;;;19.17;8.00;;;;;;;;;;6164041;23;20168;-88
2022/03/14 04:50:59;;;;;;;17.13;7.20;;;;;;;;;;6165048;23;20180;-87
2022/03/14 04:54:04;;;;;;;20.97;7.63;;;;;;;;;;6164900;23;20172;-89
2022/03/14 04:57:11;;;;;;;16.07;6.80;;;;;;;;;;6165989;23;20200;-88
2022/03/14 05:00:20;;;;;;;18.97;7.83;;;;;;;;;;6165567;23;20164;-88
2022/03/14 05:03:25;;;;;;;20.13;7.90;;;;;;;;;;6165515;23;20184;-89
2022/03/14 05:06:33;;;;;;;18.37;6.47;;;;;;;;;;6166120;23;20227;-86
2022/03/14 05:09:38;;;;;;;19.57;7.57;;;;;;;;;;6164804;23;20173;-89
2022/03/14 05:12:45;;;;;;;18.13;7.60;;;;;;;;;;6164789;23;20156;-88
2022/03/14 05:15:50;;;;;;;21.63;7.43;;;;;;;;;;6163629;23;20489;-89
2022/03/14 05:18:57;;;;;;;18.47;7.33;;;;;;;;;;6164425;23;20292;-88
2022/03/14 05:22:02;;;;;;;17.30;7.07;;;;;;;;;;6164616;23;20173;-88
2022/03/14 05:25:07;;;;;;;19.73;7.40;;;;;;;;;;6164644;23;20168;-88
2022/03/14 05:28:14;;;;;;;15.83;6.50;;;;;;;;;;6163377;23;20230;-87
2022/03/14 05:31:21;;;;;;;19.57;7.13;;;;;;;;;;6164281;23;20160;-87
2022/03/14 05:34:26;;;;;;;21.93;7.73;;;;;;;;;;6165248;23;20169;-86
2022/03/14 05:37:31;;;;;;;19.27;8.07;;;;;;;;;;6167845;23;20260;-89
2022/03/14 05:40:36;;;;;;;15.50;7.53;;;;;;;;;;6165461;23;20172;-88
2022/03/14 05:43:43;;;;;;;19.97;7.00;;;;;;;;;;6164195;23;20239;-88
2022/03/14 05:46:48;;;;;;;19.17;7.83;;;;;;;;;;6166130;23;20276;-88
2022/03/14 05:49:53;;;;;;;17.30;7.87;;;;;;;;;;6166981;23;20172;-89
2022/03/14 05:52:58;;;;;;;18.87;8.10;;;;;;;;;;6166115;23;20180;-89
2022/03/14 05:56:03;;;;;;;23.90;8.60;;;;;;;;;;6166783;23;20228;-90
2022/03/14 05:59:10;;;;;;;19.80;7.23;;;;;;;;;;6165036;23;20176;-89
2022/03/14 06:02:25;;;;;;;22.27;8.33;;;;;;;;;;6165050;23;20617;-87
2022/03/14 06:05:31;;;;;;;16.37;7.80;;;;;;;;;;6172567;23;20256;-88
2022/03/14 06:08:36;;;;;;;19.07;8.13;;;;;;;;;;6179018;23;20168;-90
2022/03/14 06:11:42;;;;;;;23.33;7.80;;;;;;;;;;6179485;23;20167;-89
2022/03/14 06:14:48;;;;;;;20.30;7.80;;;;;;;;;;6179049;23;20163;-89
2022/03/14 06:17:55;;;;;;;21.37;7.70;;;;;;;;;;6180099;23;20203;-88
2022/03/14 06:21:00;;;;;;;18.40;8.27;;;;;;;;;;6178614;23;20225;-89
2022/03/14 06:24:08;;;;;;;18.20;7.20;;;;;;;;;;6182205;23;20171;-87
2022/03/14 06:27:14;;;;;;;28.73;8.17;;;;;;;;;;6181908;23;20203;-88
2022/03/14 06:30:21;;;;;;;20.90;8.60;;;;;;;;;;6182723;23;20614;-90
2022/03/14 06:33:31;;;;;;;19.67;7.43;;;;;;;;;;6181898;23;20176;-89
2022/03/14 06:36:36;;;;;;;21.87;8.03;;;;;;;;;;6183118;23;20163;-88
2022/03/14 06:39:44;;;;;;;20.57;8.43;;;;;;;;;;6180315;23;20211;-89
2022/03/14 06:42:49;;;;;;;30.07;8.67;;;;;;;;;;6181160;23;20581;-87
2022/03/14 06:45:57;;;;;;;23.73;7.87;;;;;;;;;;6181843;23;20243;-87
2022/03/14 06:49:05;;;;;;;19.13;7.67;;;;;;;;;;6183308;23;20176;-88
2022/03/14 06:52:10;;;;;;;18.27;7.53;;;;;;;;;;6183285;23;20171;-88
2022/03/14 06:55:16;;;;;;;14.30;7.27;;;;;;;;;;6178944;23;20372;-89
2022/03/14 06:58:22;;;;;;;17.43;6.93;;;;;;;;;;6179926;23;20219;-88
2022/03/14 07:01:30;;;;;;;18.57;7.80;;;;;;;;;;6181076;23;20275;-88
2022/03/14 07:04:36;;;;;;;18.67;7.67;;;;;;;;;;6181930;23;20178;-88
2022/03/14 07:07:42;;;;;;;19.70;8.17;;;;;;;;;;6184885;23;20231;-88
2022/03/14 07:10:47;;;;;;;21.80;7.53;;;;;;;;;;6181880;23;20307;-89
2022/03/14 07:13:52;;;;;;;19.37;8.23;;;;;;;;;;6180946;23;20251;-88
2022/03/14 07:16:58;;;;;;;22.37;8.00;;;;;;;;;;6177718;23;20272;-87
2022/03/14 07:20:04;;;;;;;22.10;8.23;;;;;;;;;;6179183;23;20183;-88
2022/03/14 07:23:09;;;;;;;21.30;7.87;;;;;;;;;;6179489;23;20685;-87
2022/03/14 07:26:14;;;;;;;20.67;8.93;;;;;;;;;;6180001;23;20315;-87
2022/03/14 07:29:19;;;;;;;17.47;7.70;;;;;;;;;;6178655;23;20296;-88
2022/03/14 07:32:26;;;;;;;22.40;7.83;;;;;;;;;;6178408;23;20495;-88
2022/03/14 07:35:32;;;;;;;19.13;7.83;;;;;;;;;;6177957;23;20215;-87
2022/03/14 07:38:39;;;;;;;22.03;8.33;;;;;;;;;;6180724;23;20168;-88
2022/03/14 07:41:44;;;;;;;20.10;7.27;;;;;;;;;;6178736;23;20611;-88
2022/03/14 07:44:49;;;;;;;21.73;8.33;;;;;;;;;;6178443;23;20636;-87
2022/03/14 07:47:58;;;;;;;17.00;7.47;;;;;;;;;;6179612;23;20195;-88
2022/03/14 07:51:04;;;;;;;21.20;8.40;;;;;;;;;;6179087;23;20179;-89
2022/03/14 07:54:09;;;;;;;19.83;8.37;;;;;;;;;;6180850;23;20175;-89
2022/03/14 07:57:14;;;;;;;20.23;8.50;;;;;;;;;;6183602;23;20172;-90
2022/03/14 08:00:20;;;;;;;19.60;8.40;;;;;;;;;;6182282;23;20172;-89
2022/03/14 08:03:27;;;;;;;20.23;8.37;;;;;;;;;;6179868;23;20176;-88
2022/03/14 08:06:41;;;;;;;24.50;8.63;;;;;;;;;;6171257;23;20212;-90
2022/03/14 08:09:48;;;;;;;24.70;8.33;;;;;;;;;;6166275;23;20221;-88
2022/03/14 08:12:54;;;;;;;22.10;8.90;;;;;;;;;;6167898;23;20608;-89
2022/03/14 08:15:59;;;;;;;18.77;8.47;;;;;;;;;;6169107;23;20177;-90
2022/03/14 08:19:06;;;;;;;25.27;9.53;;;;;;;;;;6170186;23;20212;-90
2022/03/14 08:22:11;;;;;;;25.33;9.47;;;;;;;;;;6170369;23;20180;-86
2022/03/14 08:25:16;;;;;;;20.83;8.63;;;;;;;;;;6168338;23;20157;-90
2022/03/14 08:28:22;;;;;;;24.53;9.13;;;;;;;;;;6166997;23;20203;-90
2022/03/14 08:31:31;;;;;;;19.77;9.17;;;;;;;;;;6167704;23;20617;-90
2022/03/14 08:34:37;;;;;;;23.90;9.47;;;;;;;;;;6172206;23;20173;-89
2022/03/14 08:37:44;;;;;;;19.97;9.13;;;;;;;;;;6173355;23;20169;-89
2022/03/14 08:40:50;;;;;;;26.60;9.57;;;;;;;;;;6169691;23;20164;-89
2022/03/14 08:43:55;;;;;;;24.70;9.63;;;;;;;;;;6168607;23;20168;-87
2022/03/14 08:47:00;;;;;;;30.83;10.23;;;;;;;;;;6167581;23;20239;-89
2022/03/14 08:50:08;;;;;;;29.20;9.97;;;;;;;;;;6167548;23;20176;-89
2022/03/14 08:53:16;;;;;;;30.53;11.27;;;;;;;;;;6165215;23;20176;-88
2022/03/14 08:56:22;;;;;;;30.97;11.17;;;;;;;;;;6167805;23;20483;-89
2022/03/14 08:59:29;;;;;;;26.13;10.07;;;;;;;;;;6164936;23;20197;-87
2022/03/14 09:02:34;;;;;;;40.58;13.20;;;;;;;;;;6170067;23;20250;-88
2022/03/14 09:05:40;;;;;;;21.58;10.07;;;;;;;;;;6181741;23;20270;-88
2022/03/14 09:08:49;;;;;;;21.58;10.20;;;;;;;;;;6184989;23;20171;-89
2022/03/14 09:11:55;;;;;;;23.10;9.57;;;;;;;;;;6184579;23;20220;-89
2022/03/14 09:15:00;;;;;;;20.40;10.15;;;;;;;;;;6181574;23;20217;-87
2022/03/14 09:18:06;;;;;;;18.85;9.07;;;;;;;;;;6181371;23;20158;-87
2022/03/14 09:21:16;;;;;;;21.38;9.43;;;;;;;;;;6179531;23;20232;-88
2022/03/14 09:24:22;;;;;;;19.10;9.13;;;;;;;;;;6179205;23;20167;-88
2022/03/14 09:27:27;;;;;;;20.00;9.10;;;;;;;;;;6178851;23;20191;-88
2022/03/14 09:30:31;;;;;;;20.92;9.25;;;;;;;;;;6179993;23;20171;-88
2022/03/14 09:33:36;;;;;;;20.55;9.05;;;;;;;;;;6182433;23;20172;-87
2022/03/14 09:36:43;;;;;;;28.50;10.40;;;;;;;;;;6178322;23;20220;-89
2022/03/14 09:39:52;;;;;;;20.77;9.20;;;;;;;;;;6177961;23;20168;-88
2022/03/14 09:42:59;;;;;;;27.30;10.40;;;;;;;;;;6179110;23;20168;-87
2022/03/14 09:46:06;;;;;;;21.25;10.30;;;;;;;;;;6179026;23;20172;-89
2022/03/14 09:49:14;;;;;;;22.02;10.52;;;;;;;;;;6177507;23;20172;-88
2022/03/14 09:52:20;;;;;;;41.10;13.30;;;;;;;;;;6179544;23;20176;-88
2022/03/14 09:55:25;;;;;;;74.07;17.67;;;;;;;;;;6177921;23;20168;-88
2022/03/14 09:58:30;;;;;;;43.92;14.05;;;;;;;;;;6176013;23;20172;-88
2022/03/14 10:01:37;;;;;;;27.73;10.95;;;;;;;;;;6179549;23;20176;-89
2022/03/14 10:04:42;;;;;;;32.53;9.95;;;;;;;;;;6180023;23;20167;-90
2022/03/14 10:07:50;;;;;;;21.30;10.35;;;;;;;;;;6164182;23;20196;-87
2022/03/14 10:10:55;;;;;;;25.73;10.48;;;;;;;;;;6164998;23;20149;-88
2022/03/14 10:14:02;;;;;;;25.77;10.68;;;;;;;;;;6165166;23;20168;-89
2022/03/14 10:17:18;;;;;;;19.95;9.38;;;;;;;;;;6166317;23;20217;-88
2022/03/14 10:20:25;;;;;;;19.88;9.32;;;;;;;;;;6168150;23;20181;-88
2022/03/14 10:23:33;;;;;;;26.17;9.85;;;;;;;;;;6165184;23;20281;-88
2022/03/14 10:26:41;;;;;;;21.13;9.70;;;;;;;;;;6168197;23;20160;-88
2022/03/14 10:29:47;;;;;;;23.45;9.30;;;;;;;;;;6168488;23;20221;-86
2022/03/14 10:33:01;;;;;;;20.20;9.43;;;;;;;;;;6168630;23;20188;-89
2022/03/14 21:20:23;;;;;;;24.50;11.43;;;;;;;;;;6149130;23;20460;-88
2022/03/14 21:23:32;;;;;;;28.10;12.53;;;;;;;;;;6150052;23;20169;-87
2022/03/14 21:26:37;;;;;;;26.60;12.33;;;;;;;;;;6148766;23;20204;-90
2022/03/14 21:29:44;;;;;;;31.63;13.30;;;;;;;;;;6147134;23;20204;-90
2022/03/14 21:32:49;;;;;;;27.33;12.77;;;;;;;;;;6147340;23;20185;-90
2022/03/14 21:36:10;;;;;;;26.27;11.97;;;;;;;;;;6146115;23;20176;-88
2022/03/14 21:39:17;;;;;;;29.70;12.93;;;;;;;;;;6148121;23;20212;-89
2022/03/14 21:42:24;;;;;;;28.77;12.67;;;;;;;;;;6147915;23;20169;-90
2022/03/14 21:45:29;;;;;;;31.97;12.93;;;;;;;;;;6146908;23;20226;-88
2022/03/14 21:48:34;;;;;;;29.47;12.63;;;;;;;;;;6147211;23;20216;-87
2022/03/14 21:51:39;;;;;;;30.83;12.97;;;;;;;;;;6145059;23;20176;-89
2022/03/14 21:54:46;;;;;;;32.50;12.63;;;;;;;;;;6165276;23;20156;-89
2022/03/14 21:57:51;;;;;;;24.70;11.43;;;;;;;;;;6148028;23;20172;-88
2022/03/14 22:00:57;;;;;;;25.43;11.87;;;;;;;;;;6148209;23;20268;-89
2022/03/14 22:04:03;;;;;;;26.83;12.43;;;;;;;;;;6148472;23;20208;-88
2022/03/14 22:07:08;;;;;;;30.73;11.57;;;;;;;;;;6148357;23;20172;-88
2022/03/14 22:10:14;;;;;;;28.53;11.60;;;;;;;;;;6165684;23;20184;-87
2022/03/14 22:13:19;;;;;;;25.23;11.87;;;;;;;;;;6148516;23;20165;-88
2022/03/14 22:16:25;;;;;;;32.27;11.90;;;;;;;;;;6148602;23;20168;-90
2022/03/14 22:19:30;;;;;;;28.37;13.23;;;;;;;;;;6149189;23;20246;-90
2022/03/14 22:22:35;;;;;;;28.63;11.97;;;;;;;;;;6165381;23;20187;-89
2022/03/14 22:25:43;;;;;;;25.20;11.63;;;;;;;;;;6152271;23;20293;-88
2022/03/14 22:28:49;;;;;;;28.13;12.47;;;;;;;;;;6147248;23;20203;-89
2022/03/14 22:31:54;;;;;;;27.20;12.43;;;;;;;;;;6151506;23;20172;-90
2022/03/14 22:35:01;;;;;;;28.97;11.20;;;;;;;;;;6147455;23;20181;-88
2022/03/14 22:38:06;;;;;;;29.07;11.90;;;;;;;;;;6150721;23;20169;-90
2022/03/14 22:41:14;;;;;;;30.53;12.13;;;;;;;;;;6147879;23;20212;-89
2022/03/14 22:44:21;;;;;;;27.13;11.80;;;;;;;;;;6148417;23;20293;-88
2022/03/14 22:47:26;;;;;;;30.67;12.27;;;;;;;;;;6148012;23;20516;-90
2022/03/14 22:50:31;;;;;;;27.87;11.63;;;;;;;;;;6148758;23;20160;-88
2022/03/14 22:53:36;;;;;;;30.33;11.53;;;;;;;;;;6152101;23;20176;-88
2022/03/14 22:56:43;;;;;;;26.37;12.23;;;;;;;;;;6148639;23;20236;-87
2022/03/14 22:59:48;;;;;;;28.97;12.57;;;;;;;;;;6148257;23;20188;-89
2022/03/14 23:06:22;;;;;;;28.50;13.00;;;;;;;;;;6150929;23;20240;-89
2022/03/14 23:09:26;;;;;;;28.33;13.27;;;;;;;;;;6152156;23;20708;-90
2022/03/14 23:12:35;;;;;;;29.53;13.37;;;;;;;;;;6168903;23;20208;-88
2022/03/14 23:15:43;;;;;;;29.80;12.50;;;;;;;;;;6151200;23;20672;-91
2022/03/14 23:18:48;;;;;;;29.77;12.93;;;;;;;;;;6156644;23;20441;-89
2022/03/14 23:21:54;;;;;;;33.50;13.57;;;;;;;;;;6138627;23;20187;-89
2022/03/14 23:24:59;;;;;;;29.53;12.60;;;;;;;;;;6137541;23;20177;-88
2022/03/14 23:28:07;;;;;;;30.77;13.33;;;;;;;;;;6137315;23;20193;-87
2022/03/14 23:31:12;;;;;;;34.53;14.10;;;;;;;;;;6139282;23;20177;-88
2022/03/14 23:34:17;;;;;;;31.03;13.27;;;;;;;;;;6139653;23;20294;-89
2022/03/14 23:37:22;;;;;;;34.83;14.23;;;;;;;;;;6138450;23;20173;-91
2022/03/14 23:40:37;;;;;;;29.40;12.87;;;;;;;;;;6138157;23;20161;-91
2022/03/14 23:43:46;;;;;;;31.70;14.27;;;;;;;;;;6139469;23;20177;-88
2022/03/14 23:46:52;;;;;;;29.07;12.50;;;;;;;;;;6138576;23;20173;-89
2022/03/14 23:49:57;;;;;;;29.83;13.10;;;;;;;;;;6137942;23;20197;-87
2022/03/14 23:53:02;;;;;;;29.83;13.00;;;;;;;;;;6138357;23;20616;-90
2022/03/14 23:56:07;;;;;;;36.73;13.57;;;;;;;;;;6137257;23;20169;-90
2022/03/14 23:59:14;;;;;;;30.67;13.77;;;;;;;;;;6136628;23;20264;-90
